sensor_id;sensor_type;location;lat;lon;timestamp;P1;durP1;ratioP1;P2;durP2;ratioP2
23384;SDS011;11865;45.394;10.978;2023-05-21T00:01:09;24.35;;;13.43;;
23384;SDS011;11865;45.394;10.978;2023-05-21T00:03:43;18.58;;;13.60;;
23384;SDS011;11865;45.394;10.978;2023-05-21T00:06:12;18.23;;;12.85;;
23384;SDS011;11865;45.394;10.978;2023-05-21T00:08:41;19.35;;;13.35;;
23384;SDS011;11865;45.394;10.978;2023-05-21T00:11:08;19.02;;;13.55;;
23384;SDS011;11865;45.394;10.978;2023-05-21T00:13:36;16.83;;;13.43;;
23384;SDS011;11865;45.394;10.978;2023-05-21T00:16:04;19.55;;;12.98;;
23384;SDS011;11865;45.394;10.978;2023-05-21T00:18:32;16.75;;;12.77;;
23384;SDS011;11865;45.394;10.978;2023-05-21T00:21:00;19.30;;;12.65;;
23384;SDS011;11865;45.394;10.978;2023-05-21T00:23:28;17.75;;;12.65;;
23384;SDS011;11865;45.394;10.978;2023-05-21T00:25:58;19.17;;;13.32;;
23384;SDS011;11865;45.394;10.978;2023-05-21T00:28:25;15.32;;;11.90;;
23384;SDS011;11865;45.394;10.978;2023-05-21T00:30:53;15.10;;;12.07;;
23384;SDS011;11865;45.394;10.978;2023-05-21T00:33:21;17.20;;;12.32;;
23384;SDS011;11865;45.394;10.978;2023-05-21T00:35:52;15.15;;;11.50;;
23384;SDS011;11865;45.394;10.978;2023-05-21T00:38:19;15.65;;;11.73;;
23384;SDS011;11865;45.394;10.978;2023-05-21T00:40:48;15.23;;;11.82;;
23384;SDS011;11865;45.394;10.978;2023-05-21T00:43:16;16.58;;;11.95;;
23384;SDS011;11865;45.394;10.978;2023-05-21T00:45:43;15.10;;;12.05;;
23384;SDS011;11865;45.394;10.978;2023-05-21T00:48:13;16.23;;;11.93;;
23384;SDS011;11865;45.394;10.978;2023-05-21T00:50:41;19.13;;;12.05;;
23384;SDS011;11865;45.394;10.978;2023-05-21T00:53:11;15.68;;;12.15;;
23384;SDS011;11865;45.394;10.978;2023-05-21T00:55:41;18.83;;;12.18;;
23384;SDS011;11865;45.394;10.978;2023-05-21T00:58:08;15.65;;;11.98;;
23384;SDS011;11865;45.394;10.978;2023-05-21T01:00:36;18.60;;;12.43;;
23384;SDS011;11865;45.394;10.978;2023-05-21T01:03:06;21.63;;;13.32;;
23384;SDS011;11865;45.394;10.978;2023-05-21T01:05:34;21.85;;;13.80;;
23384;SDS011;11865;45.394;10.978;2023-05-21T01:08:02;22.70;;;13.63;;
23384;SDS011;11865;45.394;10.978;2023-05-21T01:10:30;20.85;;;13.90;;
23384;SDS011;11865;45.394;10.978;2023-05-21T01:12:58;18.77;;;14.07;;
23384;SDS011;11865;45.394;10.978;2023-05-21T01:15:26;18.40;;;13.63;;
23384;SDS011;11865;45.394;10.978;2023-05-21T01:17:54;22.15;;;14.00;;
23384;SDS011;11865;45.394;10.978;2023-05-21T01:20:23;20.38;;;14.63;;
23384;SDS011;11865;45.394;10.978;2023-05-21T01:22:51;23.05;;;14.90;;
23384;SDS011;11865;45.394;10.978;2023-05-21T01:25:20;20.08;;;14.35;;
23384;SDS011;11865;45.394;10.978;2023-05-21T01:27:52;25.73;;;14.95;;
23384;SDS011;11865;45.394;10.978;2023-05-21T01:30:20;19.88;;;14.98;;
23384;SDS011;11865;45.394;10.978;2023-05-21T01:32:53;23.08;;;14.25;;
23384;SDS011;11865;45.394;10.978;2023-05-21T01:35:29;22.80;;;16.17;;
23384;SDS011;11865;45.394;10.978;2023-05-21T01:38:12;24.25;;;16.65;;
23384;SDS011;11865;45.394;10.978;2023-05-21T01:40:56;22.83;;;16.50;;
23384;SDS011;11865;45.394;10.978;2023-05-21T01:43:33;21.63;;;16.40;;
23384;SDS011;11865;45.394;10.978;2023-05-21T01:46:04;26.33;;;17.17;;
23384;SDS011;11865;45.394;10.978;2023-05-21T01:48:35;23.20;;;17.08;;
23384;SDS011;11865;45.394;10.978;2023-05-21T01:51:04;25.75;;;18.10;;
23384;SDS011;11865;45.394;10.978;2023-05-21T01:53:32;27.17;;;19.48;;
23384;SDS011;11865;45.394;10.978;2023-05-21T01:56:00;27.88;;;19.17;;
23384;SDS011;11865;45.394;10.978;2023-05-21T01:58:28;27.90;;;19.60;;
23384;SDS011;11865;45.394;10.978;2023-05-21T02:00:56;28.83;;;19.63;;
23384;SDS011;11865;45.394;10.978;2023-05-21T02:03:24;31.92;;;21.58;;
23384;SDS011;11865;45.394;10.978;2023-05-21T02:05:54;31.35;;;21.90;;
23384;SDS011;11865;45.394;10.978;2023-05-21T02:08:22;34.92;;;21.77;;
23384;SDS011;11865;45.394;10.978;2023-05-21T02:10:49;32.17;;;23.02;;
23384;SDS011;11865;45.394;10.978;2023-05-21T02:13:17;30.92;;;22.58;;
23384;SDS011;11865;45.394;10.978;2023-05-21T02:15:51;37.17;;;22.83;;
23384;SDS011;11865;45.394;10.978;2023-05-21T02:18:20;33.63;;;22.02;;
23384;SDS011;11865;45.394;10.978;2023-05-21T02:20:48;35.83;;;23.20;;
23384;SDS011;11865;45.394;10.978;2023-05-21T02:23:16;39.20;;;22.35;;
23384;SDS011;11865;45.394;10.978;2023-05-21T02:25:44;32.28;;;22.75;;
23384;SDS011;11865;45.394;10.978;2023-05-21T02:28:11;34.42;;;22.25;;
23384;SDS011;11865;45.394;10.978;2023-05-21T02:30:39;31.85;;;21.67;;
23384;SDS011;11865;45.394;10.978;2023-05-21T02:33:06;36.75;;;21.95;;
23384;SDS011;11865;45.394;10.978;2023-05-21T02:35:35;38.00;;;23.30;;
23384;SDS011;11865;45.394;10.978;2023-05-21T02:38:02;33.65;;;22.67;;
23384;SDS011;11865;45.394;10.978;2023-05-21T02:40:30;31.83;;;21.90;;
23384;SDS011;11865;45.394;10.978;2023-05-21T02:42:59;30.75;;;21.85;;
23384;SDS011;11865;45.394;10.978;2023-05-21T02:45:28;32.13;;;22.60;;
23384;SDS011;11865;45.394;10.978;2023-05-21T02:47:55;32.55;;;21.10;;
23384;SDS011;11865;45.394;10.978;2023-05-21T02:50:23;29.52;;;21.80;;
23384;SDS011;11865;45.394;10.978;2023-05-21T02:52:56;34.88;;;21.67;;
23384;SDS011;11865;45.394;10.978;2023-05-21T02:55:26;30.55;;;21.27;;
23384;SDS011;11865;45.394;10.978;2023-05-21T02:57:53;30.13;;;19.73;;
23384;SDS011;11865;45.394;10.978;2023-05-21T03:00:21;29.90;;;20.05;;
23384;SDS011;11865;45.394;10.978;2023-05-21T03:02:48;33.28;;;20.85;;
23384;SDS011;11865;45.394;10.978;2023-05-21T03:05:16;33.80;;;21.55;;
23384;SDS011;11865;45.394;10.978;2023-05-21T03:07:44;25.23;;;19.75;;
23384;SDS011;11865;45.394;10.978;2023-05-21T03:10:11;27.55;;;19.65;;
23384;SDS011;11865;45.394;10.978;2023-05-21T03:12:39;28.35;;;20.88;;
23384;SDS011;11865;45.394;10.978;2023-05-21T03:15:07;31.30;;;20.58;;
23384;SDS011;11865;45.394;10.978;2023-05-21T03:17:35;27.70;;;20.15;;
23384;SDS011;11865;45.394;10.978;2023-05-21T03:20:02;26.67;;;20.00;;
23384;SDS011;11865;45.394;10.978;2023-05-21T03:22:31;24.23;;;18.70;;
23384;SDS011;11865;45.394;10.978;2023-05-21T03:24:59;27.17;;;19.38;;
23384;SDS011;11865;45.394;10.978;2023-05-21T03:27:30;30.38;;;20.15;;
23384;SDS011;11865;45.394;10.978;2023-05-21T03:30:01;27.63;;;21.40;;
23384;SDS011;11865;45.394;10.978;2023-05-21T03:32:35;28.98;;;21.77;;
23384;SDS011;11865;45.394;10.978;2023-05-21T03:35:04;27.80;;;20.27;;
23384;SDS011;11865;45.394;10.978;2023-05-21T03:37:32;30.08;;;20.83;;
23384;SDS011;11865;45.394;10.978;2023-05-21T03:40:00;28.48;;;20.15;;
23384;SDS011;11865;45.394;10.978;2023-05-21T03:42:28;28.33;;;20.30;;
23384;SDS011;11865;45.394;10.978;2023-05-21T03:44:56;32.28;;;18.20;;
23384;SDS011;11865;45.394;10.978;2023-05-21T03:47:43;23.65;;;18.35;;
23384;SDS011;11865;45.394;10.978;2023-05-21T03:50:11;27.92;;;18.55;;
23384;SDS011;11865;45.394;10.978;2023-05-21T03:52:39;22.95;;;17.13;;
23384;SDS011;11865;45.394;10.978;2023-05-21T03:55:06;24.60;;;18.10;;
23384;SDS011;11865;45.394;10.978;2023-05-21T03:57:34;27.30;;;17.88;;
23384;SDS011;11865;45.394;10.978;2023-05-21T04:00:04;24.92;;;18.60;;
23384;SDS011;11865;45.394;10.978;2023-05-21T04:02:41;24.55;;;18.67;;
23384;SDS011;11865;45.394;10.978;2023-05-21T04:05:10;25.30;;;17.20;;
23384;SDS011;11865;45.394;10.978;2023-05-21T04:07:38;21.23;;;16.90;;
23384;SDS011;11865;45.394;10.978;2023-05-21T04:10:06;23.50;;;17.38;;
23384;SDS011;11865;45.394;10.978;2023-05-21T04:12:34;24.00;;;17.58;;
23384;SDS011;11865;45.394;10.978;2023-05-21T04:15:03;23.25;;;16.45;;
23384;SDS011;11865;45.394;10.978;2023-05-21T04:17:31;24.73;;;17.58;;
23384;SDS011;11865;45.394;10.978;2023-05-21T04:20:01;25.70;;;18.02;;
23384;SDS011;11865;45.394;10.978;2023-05-21T04:22:29;22.13;;;17.38;;
23384;SDS011;11865;45.394;10.978;2023-05-21T04:24:57;22.67;;;16.85;;
23384;SDS011;11865;45.394;10.978;2023-05-21T04:27:28;25.20;;;18.07;;
23384;SDS011;11865;45.394;10.978;2023-05-21T04:29:57;25.42;;;17.38;;
23384;SDS011;11865;45.394;10.978;2023-05-21T04:32:24;23.48;;;17.25;;
23384;SDS011;11865;45.394;10.978;2023-05-21T04:34:54;23.63;;;17.55;;
23384;SDS011;11865;45.394;10.978;2023-05-21T04:37:22;23.27;;;17.38;;
23384;SDS011;11865;45.394;10.978;2023-05-21T04:39:55;22.17;;;16.75;;
23384;SDS011;11865;45.394;10.978;2023-05-21T04:42:27;22.23;;;16.52;;
23384;SDS011;11865;45.394;10.978;2023-05-21T04:44:55;24.00;;;17.42;;
23384;SDS011;11865;45.394;10.978;2023-05-21T04:47:26;22.67;;;16.30;;
23384;SDS011;11865;45.394;10.978;2023-05-21T04:50:02;22.00;;;16.23;;
23384;SDS011;11865;45.394;10.978;2023-05-21T04:52:30;21.30;;;15.85;;
23384;SDS011;11865;45.394;10.978;2023-05-21T04:54:58;23.50;;;14.40;;
23384;SDS011;11865;45.394;10.978;2023-05-21T04:57:26;19.52;;;14.85;;
23384;SDS011;11865;45.394;10.978;2023-05-21T04:59:54;18.10;;;14.30;;
23384;SDS011;11865;45.394;10.978;2023-05-21T05:02:23;18.08;;;13.80;;
23384;SDS011;11865;45.394;10.978;2023-05-21T05:04:51;16.65;;;13.45;;
23384;SDS011;11865;45.394;10.978;2023-05-21T05:07:18;19.45;;;13.07;;
23384;SDS011;11865;45.394;10.978;2023-05-21T05:09:46;16.35;;;13.73;;
23384;SDS011;11865;45.394;10.978;2023-05-21T05:12:13;20.63;;;12.93;;
23384;SDS011;11865;45.394;10.978;2023-05-21T05:14:42;18.77;;;13.77;;
23384;SDS011;11865;45.394;10.978;2023-05-21T05:17:09;17.20;;;14.00;;
23384;SDS011;11865;45.394;10.978;2023-05-21T05:19:42;21.58;;;14.45;;
23384;SDS011;11865;45.394;10.978;2023-05-21T05:22:09;18.23;;;13.63;;
23384;SDS011;11865;45.394;10.978;2023-05-21T05:24:40;18.83;;;13.77;;
23384;SDS011;11865;45.394;10.978;2023-05-21T05:27:08;16.00;;;13.82;;
23384;SDS011;11865;45.394;10.978;2023-05-21T05:29:35;17.50;;;13.60;;
23384;SDS011;11865;45.394;10.978;2023-05-21T05:32:03;19.67;;;12.77;;
23384;SDS011;11865;45.394;10.978;2023-05-21T05:34:31;20.58;;;13.23;;
23384;SDS011;11865;45.394;10.978;2023-05-21T05:36:58;18.70;;;14.18;;
23384;SDS011;11865;45.394;10.978;2023-05-21T05:39:27;19.45;;;12.82;;
23384;SDS011;11865;45.394;10.978;2023-05-21T05:41:54;22.05;;;14.60;;
23384;SDS011;11865;45.394;10.978;2023-05-21T05:44:22;20.88;;;14.52;;
23384;SDS011;11865;45.394;10.978;2023-05-21T05:46:49;19.98;;;14.82;;
23384;SDS011;11865;45.394;10.978;2023-05-21T05:49:17;23.70;;;14.27;;
23384;SDS011;11865;45.394;10.978;2023-05-21T05:51:44;23.73;;;14.98;;
23384;SDS011;11865;45.394;10.978;2023-05-21T05:54:12;19.35;;;14.45;;
23384;SDS011;11865;45.394;10.978;2023-05-21T05:56:39;22.98;;;15.77;;
23384;SDS011;11865;45.394;10.978;2023-05-21T05:59:07;22.80;;;14.57;;
23384;SDS011;11865;45.394;10.978;2023-05-21T06:01:37;22.27;;;14.98;;
23384;SDS011;11865;45.394;10.978;2023-05-21T06:04:05;22.05;;;14.93;;
23384;SDS011;11865;45.394;10.978;2023-05-21T06:06:32;24.55;;;16.55;;
23384;SDS011;11865;45.394;10.978;2023-05-21T06:09:00;20.92;;;14.95;;
23384;SDS011;11865;45.394;10.978;2023-05-21T06:11:28;23.67;;;15.60;;
23384;SDS011;11865;45.394;10.978;2023-05-21T06:13:56;24.83;;;15.65;;
23384;SDS011;11865;45.394;10.978;2023-05-21T06:16:27;20.50;;;15.85;;
23384;SDS011;11865;45.394;10.978;2023-05-21T06:18:57;20.23;;;15.75;;
23384;SDS011;11865;45.394;10.978;2023-05-21T06:21:25;19.23;;;14.95;;
23384;SDS011;11865;45.394;10.978;2023-05-21T06:23:54;24.55;;;16.25;;
23384;SDS011;11865;45.394;10.978;2023-05-21T06:26:22;22.80;;;15.45;;
23384;SDS011;11865;45.394;10.978;2023-05-21T06:28:51;21.83;;;15.60;;
23384;SDS011;11865;45.394;10.978;2023-05-21T06:31:18;20.45;;;15.27;;
23384;SDS011;11865;45.394;10.978;2023-05-21T06:33:48;22.40;;;15.80;;
23384;SDS011;11865;45.394;10.978;2023-05-21T06:36:16;21.27;;;16.25;;
23384;SDS011;11865;45.394;10.978;2023-05-21T06:38:44;33.75;;;24.88;;
23384;SDS011;11865;45.394;10.978;2023-05-21T06:41:12;30.88;;;25.10;;
23384;SDS011;11865;45.394;10.978;2023-05-21T06:43:48;33.58;;;25.67;;
23384;SDS011;11865;45.394;10.978;2023-05-21T06:46:39;32.33;;;27.38;;
23384;SDS011;11865;45.394;10.978;2023-05-21T06:49:07;32.42;;;26.75;;
23384;SDS011;11865;45.394;10.978;2023-05-21T06:51:35;30.88;;;25.88;;
23384;SDS011;11865;45.394;10.978;2023-05-21T06:54:04;26.40;;;23.60;;
23384;SDS011;11865;45.394;10.978;2023-05-21T06:56:33;29.35;;;24.52;;
23384;SDS011;11865;45.394;10.978;2023-05-21T06:59:01;25.90;;;21.90;;
23384;SDS011;11865;45.394;10.978;2023-05-21T07:01:28;29.38;;;21.83;;
23384;SDS011;11865;45.394;10.978;2023-05-21T07:03:56;21.90;;;18.92;;
23384;SDS011;11865;45.394;10.978;2023-05-21T07:06:24;24.55;;;18.70;;
23384;SDS011;11865;45.394;10.978;2023-05-21T07:08:52;19.92;;;17.15;;
23384;SDS011;11865;45.394;10.978;2023-05-21T07:11:20;18.00;;;15.82;;
23384;SDS011;11865;45.394;10.978;2023-05-21T07:13:48;17.65;;;15.38;;
23384;SDS011;11865;45.394;10.978;2023-05-21T07:16:15;15.90;;;14.13;;
23384;SDS011;11865;45.394;10.978;2023-05-21T07:18:44;16.63;;;14.40;;
23384;SDS011;11865;45.394;10.978;2023-05-21T07:21:12;15.93;;;13.65;;
23384;SDS011;11865;45.394;10.978;2023-05-21T07:23:39;17.10;;;12.55;;
23384;SDS011;11865;45.394;10.978;2023-05-21T07:26:08;17.67;;;12.45;;
23384;SDS011;11865;45.394;10.978;2023-05-21T07:28:36;16.77;;;12.70;;
23384;SDS011;11865;45.394;10.978;2023-05-21T07:31:04;13.77;;;11.80;;
23384;SDS011;11865;45.394;10.978;2023-05-21T07:33:37;12.73;;;11.20;;
23384;SDS011;11865;45.394;10.978;2023-05-21T07:36:05;15.25;;;11.50;;
23384;SDS011;11865;45.394;10.978;2023-05-21T07:38:32;16.73;;;11.73;;
23384;SDS011;11865;45.394;10.978;2023-05-21T07:41:00;13.35;;;11.95;;
23384;SDS011;11865;45.394;10.978;2023-05-21T07:43:30;15.68;;;11.68;;
23384;SDS011;11865;45.394;10.978;2023-05-21T07:45:57;13.68;;;12.25;;
23384;SDS011;11865;45.394;10.978;2023-05-21T07:48:26;14.00;;;11.85;;
23384;SDS011;11865;45.394;10.978;2023-05-21T07:50:57;14.10;;;11.25;;
23384;SDS011;11865;45.394;10.978;2023-05-21T07:53:25;15.95;;;10.80;;
23384;SDS011;11865;45.394;10.978;2023-05-21T07:55:53;14.48;;;10.38;;
23384;SDS011;11865;45.394;10.978;2023-05-21T07:58:24;16.20;;;11.80;;
23384;SDS011;11865;45.394;10.978;2023-05-21T08:00:52;11.52;;;10.32;;
23384;SDS011;11865;45.394;10.978;2023-05-21T08:03:20;13.55;;;11.00;;
23384;SDS011;11865;45.394;10.978;2023-05-21T08:05:48;14.85;;;10.45;;
23384;SDS011;11865;45.394;10.978;2023-05-21T08:08:17;13.70;;;10.43;;
23384;SDS011;11865;45.394;10.978;2023-05-21T08:10:46;12.85;;;9.77;;
23384;SDS011;11865;45.394;10.978;2023-05-21T08:13:15;12.77;;;10.32;;
23384;SDS011;11865;45.394;10.978;2023-05-21T08:15:44;12.90;;;9.77;;
23384;SDS011;11865;45.394;10.978;2023-05-21T08:18:12;11.95;;;10.43;;
23384;SDS011;11865;45.394;10.978;2023-05-21T08:20:42;11.73;;;10.25;;
23384;SDS011;11865;45.394;10.978;2023-05-21T08:23:10;10.52;;;9.40;;
23384;SDS011;11865;45.394;10.978;2023-05-21T08:25:45;11.98;;;10.32;;
23384;SDS011;11865;45.394;10.978;2023-05-21T08:28:13;15.00;;;9.43;;
23384;SDS011;11865;45.394;10.978;2023-05-21T08:30:40;13.57;;;10.15;;
23384;SDS011;11865;45.394;10.978;2023-05-21T08:33:08;15.30;;;11.18;;
23384;SDS011;11865;45.394;10.978;2023-05-21T08:35:35;16.33;;;12.30;;
23384;SDS011;11865;45.394;10.978;2023-05-21T08:38:12;14.88;;;10.93;;
23384;SDS011;11865;45.394;10.978;2023-05-21T08:40:44;19.50;;;10.55;;
23384;SDS011;11865;45.394;10.978;2023-05-21T08:43:15;17.83;;;10.45;;
23384;SDS011;11865;45.394;10.978;2023-05-21T08:45:46;11.65;;;10.45;;
23384;SDS011;11865;45.394;10.978;2023-05-21T08:48:30;14.32;;;10.60;;
23384;SDS011;11865;45.394;10.978;2023-05-21T08:50:58;14.07;;;9.45;;
23384;SDS011;11865;45.394;10.978;2023-05-21T08:53:32;13.20;;;10.13;;
23384;SDS011;11865;45.394;10.978;2023-05-21T08:56:02;15.00;;;11.57;;
23384;SDS011;11865;45.394;10.978;2023-05-21T08:58:45;13.13;;;10.65;;
23384;SDS011;11865;45.394;10.978;2023-05-21T09:01:15;19.23;;;8.53;;
23384;SDS011;11865;45.394;10.978;2023-05-21T09:03:48;14.20;;;9.48;;
23384;SDS011;11865;45.394;10.978;2023-05-21T09:06:18;10.18;;;7.10;;
23384;SDS011;11865;45.394;10.978;2023-05-21T09:08:48;13.82;;;8.25;;
23384;SDS011;11865;45.394;10.978;2023-05-21T09:11:35;15.77;;;8.60;;
23384;SDS011;11865;45.394;10.978;2023-05-21T09:14:03;8.95;;;7.30;;
23384;SDS011;11865;45.394;10.978;2023-05-21T09:16:46;19.73;;;9.45;;
23384;SDS011;11865;45.394;10.978;2023-05-21T09:19:16;8.73;;;6.88;;
23384;SDS011;11865;45.394;10.978;2023-05-21T09:21:47;10.50;;;7.83;;
23384;SDS011;11865;45.394;10.978;2023-05-21T09:24:20;17.02;;;7.90;;
23384;SDS011;11865;45.394;10.978;2023-05-21T09:26:51;10.02;;;6.93;;
23384;SDS011;11865;45.394;10.978;2023-05-21T09:29:19;11.88;;;8.52;;
23384;SDS011;11865;45.394;10.978;2023-05-21T09:31:46;13.32;;;8.10;;
23384;SDS011;11865;45.394;10.978;2023-05-21T09:34:15;9.48;;;7.05;;
23384;SDS011;11865;45.394;10.978;2023-05-21T09:36:45;18.83;;;8.88;;
23384;SDS011;11865;45.394;10.978;2023-05-21T09:39:27;10.38;;;7.05;;
23384;SDS011;11865;45.394;10.978;2023-05-21T09:42:01;10.73;;;6.82;;
23384;SDS011;11865;45.394;10.978;2023-05-21T09:44:28;11.82;;;7.45;;
23384;SDS011;11865;45.394;10.978;2023-05-21T09:46:57;16.40;;;8.65;;
23384;SDS011;11865;45.394;10.978;2023-05-21T09:49:25;10.15;;;7.35;;
23384;SDS011;11865;45.394;10.978;2023-05-21T09:51:55;13.13;;;7.60;;
23384;SDS011;11865;45.394;10.978;2023-05-21T09:54:24;21.75;;;10.60;;
23384;SDS011;11865;45.394;10.978;2023-05-21T09:56:57;12.63;;;7.50;;
23384;SDS011;11865;45.394;10.978;2023-05-21T09:59:39;9.70;;;7.53;;
23384;SDS011;11865;45.394;10.978;2023-05-21T10:02:17;14.68;;;8.55;;
23384;SDS011;11865;45.394;10.978;2023-05-21T10:04:47;16.58;;;8.00;;
23384;SDS011;11865;45.394;10.978;2023-05-21T10:07:17;11.27;;;7.95;;
23384;SDS011;11865;45.394;10.978;2023-05-21T10:09:55;12.18;;;7.78;;
23384;SDS011;11865;45.394;10.978;2023-05-21T10:15:02;11.70;;;7.97;;
23384;SDS011;11865;45.394;10.978;2023-05-21T10:17:30;10.30;;;7.72;;
23384;SDS011;11865;45.394;10.978;2023-05-21T10:19:58;12.57;;;8.27;;
23384;SDS011;11865;45.394;10.978;2023-05-21T10:22:27;20.10;;;10.13;;
23384;SDS011;11865;45.394;10.978;2023-05-21T10:24:55;9.98;;;7.30;;
23384;SDS011;11865;45.394;10.978;2023-05-21T10:27:24;10.35;;;7.38;;
23384;SDS011;11865;45.394;10.978;2023-05-21T10:29:56;9.73;;;6.85;;
23384;SDS011;11865;45.394;10.978;2023-05-21T10:32:25;9.40;;;7.43;;
23384;SDS011;11865;45.394;10.978;2023-05-21T10:34:54;9.60;;;7.60;;
23384;SDS011;11865;45.394;10.978;2023-05-21T10:37:25;9.57;;;6.82;;
23384;SDS011;11865;45.394;10.978;2023-05-21T10:39:54;21.23;;;10.43;;
23384;SDS011;11865;45.394;10.978;2023-05-21T10:53:47;9.57;;;6.85;;
23384;SDS011;11865;45.394;10.978;2023-05-21T10:56:37;12.27;;;6.70;;
23384;SDS011;11865;45.394;10.978;2023-05-21T10:59:14;12.98;;;7.05;;
23384;SDS011;11865;45.394;10.978;2023-05-21T11:01:48;14.23;;;7.60;;
23384;SDS011;11865;45.394;10.978;2023-05-21T11:04:21;8.95;;;6.47;;
23384;SDS011;11865;45.394;10.978;2023-05-21T11:06:51;15.27;;;7.93;;
23384;SDS011;11865;45.394;10.978;2023-05-21T11:09:19;7.68;;;6.10;;
23384;SDS011;11865;45.394;10.978;2023-05-21T11:11:50;10.73;;;7.18;;
23384;SDS011;11865;45.394;10.978;2023-05-21T11:20:12;10.77;;;5.97;;
23384;SDS011;11865;45.394;10.978;2023-05-21T11:22:40;10.98;;;6.63;;
23384;SDS011;11865;45.394;10.978;2023-05-21T11:25:07;16.80;;;7.38;;
23384;SDS011;11865;45.394;10.978;2023-05-21T11:30:04;11.75;;;6.68;;
23384;SDS011;11865;45.394;10.978;2023-05-21T11:32:38;10.27;;;6.60;;
23384;SDS011;11865;45.394;10.978;2023-05-21T11:35:07;7.93;;;6.32;;
23384;SDS011;11865;45.394;10.978;2023-05-21T11:37:34;10.10;;;6.68;;
23384;SDS011;11865;45.394;10.978;2023-05-21T11:40:16;8.68;;;6.72;;
23384;SDS011;11865;45.394;10.978;2023-05-21T11:42:52;9.73;;;6.57;;
23384;SDS011;11865;45.394;10.978;2023-05-21T11:45:21;14.60;;;7.82;;
23384;SDS011;11865;45.394;10.978;2023-05-21T11:47:53;10.32;;;6.40;;
23384;SDS011;11865;45.394;10.978;2023-05-21T11:50:22;11.05;;;6.85;;
23384;SDS011;11865;45.394;10.978;2023-05-21T11:52:51;11.25;;;6.75;;
23384;SDS011;11865;45.394;10.978;2023-05-21T11:55:22;10.05;;;7.40;;
23384;SDS011;11865;45.394;10.978;2023-05-21T11:57:52;10.00;;;7.38;;
23384;SDS011;11865;45.394;10.978;2023-05-21T12:00:21;11.45;;;7.78;;
23384;SDS011;11865;45.394;10.978;2023-05-21T12:02:49;9.35;;;6.82;;
23384;SDS011;11865;45.394;10.978;2023-05-21T12:05:18;8.73;;;6.78;;
23384;SDS011;11865;45.394;10.978;2023-05-21T12:07:46;11.30;;;7.47;;
23384;SDS011;11865;45.394;10.978;2023-05-21T12:10:16;16.40;;;7.63;;
23384;SDS011;11865;45.394;10.978;2023-05-21T12:12:47;9.70;;;6.82;;
23384;SDS011;11865;45.394;10.978;2023-05-21T12:15:23;12.73;;;7.35;;
23384;SDS011;11865;45.394;10.978;2023-05-21T12:17:52;12.05;;;7.22;;
23384;SDS011;11865;45.394;10.978;2023-05-21T12:20:20;10.75;;;7.82;;
23384;SDS011;11865;45.394;10.978;2023-05-21T12:22:49;9.98;;;6.35;;
23384;SDS011;11865;45.394;10.978;2023-05-21T12:25:17;9.02;;;6.80;;
23384;SDS011;11865;45.394;10.978;2023-05-21T12:27:47;12.50;;;6.75;;
23384;SDS011;11865;45.394;10.978;2023-05-21T12:30:16;9.40;;;6.72;;
23384;SDS011;11865;45.394;10.978;2023-05-21T12:32:44;12.98;;;6.80;;
23384;SDS011;11865;45.394;10.978;2023-05-21T12:35:21;7.45;;;5.82;;
23384;SDS011;11865;45.394;10.978;2023-05-21T12:37:50;11.80;;;8.00;;
23384;SDS011;11865;45.394;10.978;2023-05-21T12:40:18;12.10;;;7.35;;
23384;SDS011;11865;45.394;10.978;2023-05-21T12:42:46;9.90;;;7.38;;
23384;SDS011;11865;45.394;10.978;2023-05-21T12:45:13;10.43;;;6.97;;
23384;SDS011;11865;45.394;10.978;2023-05-21T12:47:46;15.90;;;8.60;;
23384;SDS011;11865;45.394;10.978;2023-05-21T12:50:18;10.02;;;6.82;;
23384;SDS011;11865;45.394;10.978;2023-05-21T12:52:47;14.07;;;8.30;;
23384;SDS011;11865;45.394;10.978;2023-05-21T12:55:15;12.00;;;6.68;;
23384;SDS011;11865;45.394;10.978;2023-05-21T12:57:43;10.25;;;6.68;;
23384;SDS011;11865;45.394;10.978;2023-05-21T13:00:11;11.98;;;7.28;;
23384;SDS011;11865;45.394;10.978;2023-05-21T13:02:40;9.60;;;6.35;;
23384;SDS011;11865;45.394;10.978;2023-05-21T13:05:19;8.13;;;6.35;;
23384;SDS011;11865;45.394;10.978;2023-05-21T13:07:47;9.07;;;6.65;;
23384;SDS011;11865;45.394;10.978;2023-05-21T13:10:16;8.88;;;6.63;;
23384;SDS011;11865;45.394;10.978;2023-05-21T13:12:45;9.05;;;7.30;;
23384;SDS011;11865;45.394;10.978;2023-05-21T13:15:12;9.82;;;6.78;;
23384;SDS011;11865;45.394;10.978;2023-05-21T13:17:40;9.75;;;6.63;;
23384;SDS011;11865;45.394;10.978;2023-05-21T13:20:08;19.00;;;8.15;;
23384;SDS011;11865;45.394;10.978;2023-05-21T13:22:46;10.07;;;7.32;;
23384;SDS011;11865;45.394;10.978;2023-05-21T13:25:19;9.93;;;7.20;;
23384;SDS011;11865;45.394;10.978;2023-05-21T13:27:49;12.95;;;7.25;;
23384;SDS011;11865;45.394;10.978;2023-05-21T13:30:17;11.95;;;8.23;;
23384;SDS011;11865;45.394;10.978;2023-05-21T13:32:45;14.20;;;8.18;;
23384;SDS011;11865;45.394;10.978;2023-05-21T13:35:14;12.65;;;7.85;;
23384;SDS011;11865;45.394;10.978;2023-05-21T13:37:43;10.30;;;6.90;;
23384;SDS011;11865;45.394;10.978;2023-05-21T13:40:11;7.85;;;6.60;;
23384;SDS011;11865;45.394;10.978;2023-05-21T13:42:44;11.30;;;6.55;;
23384;SDS011;11865;45.394;10.978;2023-05-21T13:45:15;15.75;;;8.25;;
23384;SDS011;11865;45.394;10.978;2023-05-21T13:47:44;10.07;;;6.65;;
23384;SDS011;11865;45.394;10.978;2023-05-21T13:50:14;10.20;;;7.05;;
23384;SDS011;11865;45.394;10.978;2023-05-21T13:52:42;10.13;;;6.82;;
23384;SDS011;11865;45.394;10.978;2023-05-21T13:55:09;6.22;;;5.60;;
23384;SDS011;11865;45.394;10.978;2023-05-21T13:57:37;19.40;;;7.85;;
23384;SDS011;11865;45.394;10.978;2023-05-21T14:00:06;8.43;;;6.75;;
23384;SDS011;11865;45.394;10.978;2023-05-21T14:02:41;13.35;;;7.00;;
23384;SDS011;11865;45.394;10.978;2023-05-21T14:05:09;17.90;;;7.03;;
23384;SDS011;11865;45.394;10.978;2023-05-21T14:07:38;11.82;;;7.40;;
23384;SDS011;11865;45.394;10.978;2023-05-21T14:10:06;14.02;;;6.60;;
23384;SDS011;11865;45.394;10.978;2023-05-21T14:12:33;13.30;;;6.80;;
23384;SDS011;11865;45.394;10.978;2023-05-21T14:15:01;11.68;;;6.82;;
23384;SDS011;11865;45.394;10.978;2023-05-21T14:17:29;11.90;;;7.25;;
23384;SDS011;11865;45.394;10.978;2023-05-21T14:19:56;9.50;;;6.50;;
23384;SDS011;11865;45.394;10.978;2023-05-21T14:22:24;12.02;;;6.72;;
23384;SDS011;11865;45.394;10.978;2023-05-21T14:24:51;14.73;;;9.70;;
23384;SDS011;11865;45.394;10.978;2023-05-21T14:27:19;11.70;;;7.05;;
23384;SDS011;11865;45.394;10.978;2023-05-21T14:29:46;13.63;;;6.47;;
23384;SDS011;11865;45.394;10.978;2023-05-21T14:32:13;9.52;;;6.20;;
23384;SDS011;11865;45.394;10.978;2023-05-21T14:34:43;12.45;;;5.97;;
23384;SDS011;11865;45.394;10.978;2023-05-21T14:37:10;8.40;;;5.15;;
23384;SDS011;11865;45.394;10.978;2023-05-21T14:39:38;8.93;;;5.10;;
23384;SDS011;11865;45.394;10.978;2023-05-21T14:42:05;7.95;;;5.15;;
23384;SDS011;11865;45.394;10.978;2023-05-21T14:44:33;12.93;;;5.47;;
23384;SDS011;11865;45.394;10.978;2023-05-21T14:47:00;10.45;;;5.60;;
23384;SDS011;11865;45.394;10.978;2023-05-21T14:49:27;14.93;;;6.28;;
23384;SDS011;11865;45.394;10.978;2023-05-21T14:51:55;9.32;;;5.40;;